Time;durP1;ratioP1;P1;durP2;ratioP2;P2;SDS_P1;SDS_P2;PMS_P1;PMS_P2;Temp;Humidity;BMP_temperature;BMP_pressure;BME280_temperature;BME280_humidity;BME280_pressure;Samples;Min_cycle;Max_cycle;Signal;HPM_P1;HPM_P2
2021/06/26 00:01:55;;;;;;;3.47;3.17;;;16.10;99.90;;;;;;5044554;28;20257;-69
2021/06/26 00:04:22;;;;;;;4.63;3.15;;;16.10;99.90;;;;;;5051927;28;20287;-68
2021/06/26 00:06:49;;;;;;;4.32;3.40;;;16.00;99.90;;;;;;5038009;28;20867;-69
2021/06/26 00:09:16;;;;;;;4.38;3.20;;;16.00;99.90;;;;;;5049218;28;20206;-68
2021/06/26 00:11:45;;;;;;;5.50;3.60;;;16.10;99.90;;;;;;5044641;28;20210;-69
2021/06/26 00:14:12;;;;;;;8.40;4.05;;;16.10;99.90;;;;;;5049923;28;20271;-69
2021/06/26 00:16:39;;;;;;;4.07;3.33;;;16.10;99.90;;;;;;5045940;28;20343;-69
2021/06/26 00:19:06;;;;;;;4.37;3.90;;;16.30;99.90;;;;;;5049865;28;20233;-69
2021/06/26 00:21:33;;;;;;;4.10;3.40;;;16.30;99.90;;;;;;5040451;28;20258;-69
2021/06/26 00:24:00;;;;;;;3.90;3.27;;;16.20;99.90;;;;;;5035204;28;20204;-69
2021/06/26 00:26:27;;;;;;;4.60;3.50;;;16.20;99.90;;;;;;5054527;28;20203;-68
2021/06/26 00:28:56;;;;;;;4.68;3.28;;;16.20;99.90;;;;;;5047502;28;20567;-69
2021/06/26 00:31:23;;;;;;;4.73;3.23;;;16.20;99.90;;;;;;5049217;28;20205;-69
2021/06/26 00:33:50;;;;;;;3.92;3.33;;;16.30;99.90;;;;;;5050478;28;20217;-69
2021/06/26 00:36:17;;;;;;;3.88;3.40;;;16.30;99.90;;;;;;5054701;28;20250;-68
2021/06/26 00:38:44;;;;;;;3.85;3.25;;;16.30;99.90;;;;;;5049928;28;20238;-68
2021/06/26 00:41:11;;;;;;;4.68;3.67;;;16.30;99.90;;;;;;5049805;28;20264;-69
2021/06/26 00:43:37;;;;;;;4.43;3.25;;;16.30;99.90;;;;;;5050502;28;20199;-68
2021/06/26 00:46:06;;;;;;;3.88;3.30;;;16.20;99.90;;;;;;5043801;28;20250;-68
2021/06/26 00:48:33;;;;;;;4.13;3.30;;;16.10;99.90;;;;;;5049391;28;20199;-69
2021/06/26 00:51:00;;;;;;;10.02;3.53;;;16.20;99.90;;;;;;5039351;28;20200;-69
2021/06/26 00:53:28;;;;;;;3.72;3.33;;;16.20;99.90;;;;;;5046603;28;20251;-69
2021/06/26 00:55:54;;;;;;;4.03;3.50;;;16.20;99.90;;;;;;5042501;28;20313;-69
2021/06/26 00:58:22;;;;;;;4.57;3.50;;;16.20;99.90;;;;;;5037557;28;20261;-69
2021/06/26 01:00:50;;;;;;;3.38;3.08;;;16.10;99.90;;;;;;5041511;28;20241;-69
2021/06/26 01:03:18;;;;;;;5.45;3.20;;;16.10;99.90;;;;;;5045627;28;20203;-69
2021/06/26 01:05:45;;;;;;;9.10;3.78;;;16.20;99.90;;;;;;5045176;28;20270;-69
2021/06/26 01:08:13;;;;;;;5.22;3.28;;;16.10;99.90;;;;;;5035600;28;20740;-68
2021/06/26 01:10:40;;;;;;;6.47;3.50;;;16.10;99.90;;;;;;5058224;28;20612;-69
2021/06/26 01:13:07;;;;;;;4.33;3.17;;;16.10;99.90;;;;;;5049681;28;20198;-69
2021/06/26 01:15:35;;;;;;;5.40;3.67;;;16.10;99.90;;;;;;5052244;28;20218;-68
2021/06/26 01:18:02;;;;;;;4.40;3.05;;;15.90;99.90;;;;;;5056381;28;20199;-68
2021/06/26 01:20:31;;;;;;;4.37;3.37;;;15.90;99.90;;;;;;5048965;28;20203;-69
2021/06/26 01:22:59;;;;;;;5.73;3.50;;;16.00;99.90;;;;;;5062360;28;20268;-69
2021/06/26 01:25:28;;;;;;;4.77;3.33;;;16.00;99.90;;;;;;5060465;28;20576;-69
2021/06/26 01:27:56;;;;;;;4.05;3.25;;;16.00;99.90;;;;;;5052087;28;20253;-68
2021/06/26 01:30:26;;;;;;;5.90;3.33;;;16.00;99.90;;;;;;5065208;28;20578;-69
2021/06/26 01:32:53;;;;;;;3.73;3.43;;;16.00;99.90;;;;;;5053364;28;20195;-69
2021/06/26 01:35:20;;;;;;;4.70;3.40;;;16.00;99.90;;;;;;5059690;28;20219;-68
2021/06/26 01:37:47;;;;;;;4.93;3.45;;;16.00;99.90;;;;;;5052585;28;20649;-69
2021/06/26 01:40:20;;;;;;;5.87;3.67;;;16.10;99.90;;;;;;5048533;28;20207;-68
2021/06/26 01:42:49;;;;;;;4.13;3.10;;;16.10;99.90;;;;;;5051058;28;20572;-68
2021/06/26 01:45:17;;;;;;;6.67;3.60;;;16.00;99.90;;;;;;5068902;28;20240;-69
2021/06/26 01:47:48;;;;;;;3.63;3.30;;;16.10;99.90;;;;;;5074498;28;20198;-68
2021/06/26 01:50:16;;;;;;;3.92;3.53;;;16.00;99.90;;;;;;5056157;28;20645;-69
2021/06/26 01:52:44;;;;;;;6.38;3.80;;;16.00;99.90;;;;;;5060519;28;20198;-68
2021/06/26 01:55:12;;;;;;;4.55;3.42;;;16.00;99.90;;;;;;5063400;28;20314;-69
2021/06/26 01:57:41;;;;;;;4.28;3.25;;;16.00;99.90;;;;;;5062045;28;20194;-68
2021/06/26 02:00:09;;;;;;;4.82;3.67;;;16.00;99.90;;;;;;5065331;28;20910;-68
2021/06/26 02:02:36;;;;;;;4.10;3.60;;;16.00;99.90;;;;;;5066673;28;20201;-69
2021/06/26 02:05:03;;;;;;;4.95;3.25;;;15.90;99.90;;;;;;5056936;28;20721;-69
2021/06/26 02:07:30;;;;;;;3.60;3.30;;;15.90;99.90;;;;;;5054551;28;20198;-69
2021/06/26 02:09:57;;;;;;;5.43;3.07;;;15.90;99.90;;;;;;5059152;28;20237;-69
2021/06/26 02:12:24;;;;;;;3.37;3.07;;;15.80;99.90;;;;;;5054959;28;20665;-68
2021/06/26 02:14:53;;;;;;;5.32;3.22;;;15.80;99.90;;;;;;5065258;28;20202;-68
2021/06/26 02:17:21;;;;;;;5.33;3.63;;;15.90;99.90;;;;;;5059461;28;20195;-68
2021/06/26 02:19:48;;;;;;;4.07;3.67;;;16.00;99.90;;;;;;5061147;28;20200;-69
2021/06/26 02:22:16;;;;;;;3.87;3.43;;;16.00;99.90;;;;;;5054182;28;20203;-69
2021/06/26 02:24:43;;;;;;;6.37;3.73;;;15.70;99.90;;;;;;5065472;28;20259;-68
2021/06/26 02:27:10;;;;;;;3.50;3.20;;;15.80;99.90;;;;;;5063967;28;20204;-68
2021/06/26 02:29:37;;;;;;;5.13;3.80;;;15.80;99.90;;;;;;5044186;28;20257;-69
2021/06/26 02:32:06;;;;;;;5.18;3.75;;;15.80;99.90;;;;;;5037577;28;20266;-69
2021/06/26 02:34:34;;;;;;;4.43;3.47;;;15.80;99.90;;;;;;5049858;28;20787;-69
2021/06/26 02:37:02;;;;;;;4.23;3.50;;;15.70;99.90;;;;;;5051285;28;20648;-68
2021/06/26 02:39:29;;;;;;;4.60;3.97;;;15.80;99.90;;;;;;5050857;28;20285;-69
2021/06/26 02:41:55;;;;;;;5.90;3.90;;;15.80;99.90;;;;;;5044811;28;20202;-68
2021/06/26 02:44:22;;;;;;;5.50;3.97;;;15.80;99.90;;;;;;5058240;28;20202;-69
2021/06/26 02:46:50;;;;;;;4.33;3.87;;;15.80;99.90;;;;;;5045555;28;20246;-68
2021/06/26 02:49:19;;;;;;;4.93;3.60;;;15.70;99.90;;;;;;5043217;28;20252;-68
2021/06/26 02:51:46;;;;;;;4.30;3.10;;;15.70;99.90;;;;;;5055380;28;20203;-69
2021/06/26 02:54:13;;;;;;;4.70;3.50;;;15.60;99.90;;;;;;5070465;28;20202;-69
2021/06/26 02:56:40;;;;;;;5.10;3.63;;;15.60;99.90;;;;;;5064653;28;20276;-69
2021/06/26 02:59:07;;;;;;;4.63;3.60;;;15.60;99.90;;;;;;5061864;28;20199;-69
2021/06/26 03:01:34;;;;;;;6.80;3.57;;;15.50;99.90;;;;;;5063464;28;20259;-73
2021/06/26 03:04:01;;;;;;;5.80;3.23;;;15.60;99.90;;;;;;5069231;28;20255;-72
2021/06/26 03:06:29;;;;;;;4.90;4.00;;;15.60;99.90;;;;;;5071820;28;20273;-69
2021/06/26 03:08:56;;;;;;;5.57;3.70;;;15.70;99.90;;;;;;5069182;28;20248;-69
2021/06/26 03:11:23;;;;;;;7.23;4.00;;;15.60;99.90;;;;;;5072641;28;20210;-69
2021/06/26 03:13:50;;;;;;;4.17;3.60;;;15.50;99.90;;;;;;5072295;28;20190;-69
2021/06/26 03:16:17;;;;;;;5.23;3.70;;;15.60;99.90;;;;;;5072484;28;20276;-69
2021/06/26 03:18:44;;;;;;;5.60;3.73;;;15.60;99.90;;;;;;5071013;28;20268;-68
2021/06/26 03:21:12;;;;;;;5.90;3.73;;;15.60;99.90;;;;;;5056215;28;20249;-69
2021/06/26 03:23:41;;;;;;;5.73;3.80;;;15.60;99.90;;;;;;5070020;28;20203;-69
2021/06/26 03:26:08;;;;;;;3.90;3.43;;;15.40;99.90;;;;;;5057542;28;20203;-68
2021/06/26 03:28:36;;;;;;;3.85;3.55;;;15.40;99.90;;;;;;5068572;28;20229;-69
2021/06/26 03:31:04;;;;;;;6.10;4.00;;;15.50;99.90;;;;;;5061859;28;20195;-69
2021/06/26 03:33:31;;;;;;;4.15;3.58;;;15.50;99.90;;;;;;5057937;28;20218;-68
2021/06/26 03:35:58;;;;;;;4.50;3.83;;;15.70;99.90;;;;;;5053118;28;20681;-69
2021/06/26 03:38:25;;;;;;;4.40;3.63;;;15.70;99.90;;;;;;5071727;28;20198;-69
2021/06/26 03:40:54;;;;;;;6.27;3.70;;;15.80;99.90;;;;;;5063486;28;20243;-69
2021/06/26 03:43:21;;;;;;;4.05;3.70;;;15.80;99.90;;;;;;5073226;28;20202;-68
2021/06/26 03:45:49;;;;;;;5.83;3.30;;;15.80;99.90;;;;;;5063924;28;20661;-68
2021/06/26 03:48:16;;;;;;;5.03;3.88;;;15.70;99.90;;;;;;5052682;28;20631;-69
2021/06/26 03:50:43;;;;;;;5.43;3.63;;;15.60;99.90;;;;;;5051899;28;20203;-68
2021/06/26 03:53:10;;;;;;;3.67;3.33;;;15.70;99.90;;;;;;5052747;28;20261;-68
2021/06/26 03:55:38;;;;;;;5.43;3.90;;;15.80;99.90;;;;;;5063026;28;20195;-69
2021/06/26 03:58:06;;;;;;;4.22;3.53;;;16.00;99.90;;;;;;5067583;28;20226;-69
2021/06/26 04:00:33;;;;;;;4.93;4.10;;;16.00;99.90;;;;;;5048048;28;20489;-68
2021/06/26 04:03:00;;;;;;;3.95;3.55;;;16.00;99.90;;;;;;5045682;28;20664;-69
2021/06/26 04:05:27;;;;;;;4.63;3.60;;;16.10;99.90;;;;;;5041375;28;20198;-69
2021/06/26 04:07:54;;;;;;;4.80;4.13;;;16.00;99.90;;;;;;5048688;28;20199;-69
2021/06/26 04:10:22;;;;;;;6.20;3.80;;;16.10;99.90;;;;;;5051489;28;20624;-69
2021/06/26 04:12:49;;;;;;;4.18;3.65;;;16.00;99.90;;;;;;5050480;28;20208;-69
2021/06/26 04:15:17;;;;;;;4.23;3.83;;;16.10;99.90;;;;;;5048441;28;20194;-69
2021/06/26 04:17:44;;;;;;;7.18;4.32;;;16.10;99.90;;;;;;5043553;28;20227;-68
2021/06/26 04:20:13;;;;;;;4.35;3.70;;;16.00;99.90;;;;;;5059587;28;20207;-69
2021/06/26 04:22:44;;;;;;;6.32;4.63;;;16.00;99.90;;;;;;5055109;28;20203;-68
2021/06/26 04:25:12;;;;;;;5.95;4.43;;;16.20;99.90;;;;;;5071959;28;20234;-68
2021/06/26 04:27:39;;;;;;;4.70;4.20;;;16.30;99.90;;;;;;5064331;28;20248;-69
2021/06/26 04:30:07;;;;;;;5.13;4.53;;;16.30;99.90;;;;;;5066112;28;20226;-69
2021/06/26 04:32:38;;;;;;;6.70;3.85;;;16.30;99.90;;;;;;5051716;28;20272;-69
2021/06/26 04:35:06;;;;;;;4.38;3.95;;;16.10;99.90;;;;;;5067315;28;20293;-69
2021/06/26 04:37:33;;;;;;;4.88;4.32;;;16.30;99.90;;;;;;5051388;28;20233;-69
2021/06/26 04:40:00;;;;;;;5.70;4.00;;;16.40;99.90;;;;;;5053319;28;20249;-69
2021/06/26 04:42:27;;;;;;;7.13;4.15;;;16.40;99.90;;;;;;5061143;28;20203;-69
2021/06/26 04:44:54;;;;;;;6.80;4.18;;;16.40;99.90;;;;;;5067290;28;20256;-69
2021/06/26 04:47:22;;;;;;;6.55;4.00;;;16.20;99.90;;;;;;5054164;28;20264;-69
2021/06/26 04:49:50;;;;;;;4.85;4.20;;;16.30;99.90;;;;;;5051527;28;20199;-69
2021/06/26 04:52:17;;;;;;;5.72;3.97;;;16.40;99.90;;;;;;5055346;28;20198;-69
2021/06/26 04:54:44;;;;;;;6.43;4.00;;;16.40;99.90;;;;;;5070921;28;20202;-69
2021/06/26 04:57:11;;;;;;;27.85;5.40;;;16.50;99.90;;;;;;5067631;28;20253;-69
2021/06/26 04:59:38;;;;;;;10.70;4.32;;;16.50;99.90;;;;;;5058947;28;20203;-70
2021/06/26 05:02:05;;;;;;;12.32;8.40;;;16.60;99.90;;;;;;5058695;28;20267;-70
2021/06/26 05:04:32;;;;;;;7.18;5.03;;;16.70;99.90;;;;;;5070304;28;20737;-69
2021/06/26 05:07:00;;;;;;;5.55;4.18;;;16.70;99.90;;;;;;5052305;28;20213;-70
2021/06/26 05:09:27;;;;;;;6.18;4.25;;;16.70;99.90;;;;;;5051216;28;20203;-70
2021/06/26 05:11:54;;;;;;;7.15;4.03;;;16.80;99.90;;;;;;5050184;28;20548;-70
2021/06/26 05:14:21;;;;;;;6.82;4.40;;;16.90;99.90;;;;;;5069405;28;20614;-70
2021/06/26 05:16:48;;;;;;;8.70;4.47;;;16.80;99.90;;;;;;5070737;28;20612;-70
2021/06/26 05:19:15;;;;;;;6.90;4.20;;;16.90;99.90;;;;;;5069779;28;20198;-69
2021/06/26 05:21:42;;;;;;;5.60;4.25;;;17.10;99.90;;;;;;5067737;28;20276;-70
2021/06/26 05:24:11;;;;;;;6.03;3.95;;;17.30;99.90;;;;;;5062362;28;20249;-71
2021/06/26 05:26:38;;;;;;;6.47;4.13;;;17.40;99.90;;;;;;5050670;28;20257;-74
2021/06/26 05:29:05;;;;;;;5.80;4.35;;;17.60;99.90;;;;;;5058375;28;20606;-70
2021/06/26 05:31:31;;;;;;;5.72;4.53;;;17.70;99.90;;;;;;5067453;28;20191;-76
2021/06/26 05:33:58;;;;;;;5.95;4.65;;;17.50;99.90;;;;;;5054871;28;20205;-76
2021/06/26 05:36:25;;;;;;;6.63;4.47;;;17.70;99.90;;;;;;5053650;28;20226;-76
2021/06/26 05:38:52;;;;;;;6.38;4.50;;;17.80;99.90;;;;;;5072406;28;20639;-76
2021/06/26 05:41:20;;;;;;;6.30;4.43;;;18.20;99.90;;;;;;5067212;28;20194;-76
2021/06/26 05:43:47;;;;;;;6.82;5.03;;;18.40;99.90;;;;;;5065044;28;20202;-71
2021/06/26 05:46:14;;;;;;;6.03;4.47;;;18.30;99.90;;;;;;5057223;28;20209;-70
2021/06/26 05:48:41;;;;;;;6.28;4.53;;;18.40;99.90;;;;;;5060419;28;20653;-74
2021/06/26 05:51:08;;;;;;;8.07;4.50;;;18.30;99.90;;;;;;5052093;28;20195;-69
2021/06/26 05:53:34;;;;;;;6.05;5.00;;;18.40;99.90;;;;;;5058373;28;20204;-69
2021/06/26 05:56:01;;;;;;;7.00;5.28;;;18.40;99.90;;;;;;5041356;28;20542;-69
2021/06/26 05:58:33;;;;;;;6.97;4.25;;;18.40;99.90;;;;;;5065269;28;20226;-69
2021/06/26 06:01:00;;;;;;;5.43;4.90;;;18.30;99.90;;;;;;5052808;28;20191;-70
2021/06/26 06:03:27;;;;;;;5.20;4.45;;;18.40;99.90;;;;;;5055116;28;20679;-69
2021/06/26 06:05:54;;;;;;;7.20;4.85;;;18.50;99.90;;;;;;5050161;28;20209;-70
2021/06/26 06:08:21;;;;;;;7.53;4.80;;;18.50;99.90;;;;;;5050473;28;20203;-70
2021/06/26 06:10:48;;;;;;;5.75;5.15;;;18.30;99.90;;;;;;5049841;28;20223;-70
2021/06/26 06:13:16;;;;;;;8.48;5.22;;;18.20;99.90;;;;;;5053954;28;20217;-70
2021/06/26 06:15:46;;;;;;;5.90;4.93;;;18.20;99.90;;;;;;5068233;28;20206;-69
2021/06/26 06:18:14;;;;;;;6.40;5.20;;;18.30;99.90;;;;;;5054082;28;20219;-69
2021/06/26 06:20:41;;;;;;;5.30;4.80;;;18.30;99.90;;;;;;5052076;28;20289;-69
2021/06/26 06:23:09;;;;;;;5.28;4.78;;;18.50;99.90;;;;;;5060226;28;20194;-69
2021/06/26 06:25:35;;;;;;;7.75;5.55;;;18.50;99.90;;;;;;5059549;28;20229;-69
2021/06/26 06:28:02;;;;;;;7.35;5.28;;;18.50;99.90;;;;;;5058423;28;20195;-70
2021/06/26 06:30:31;;;;;;;8.95;5.70;;;18.50;99.90;;;;;;5071288;28;20687;-70
2021/06/26 06:32:59;;;;;;;6.57;5.63;;;18.50;99.90;;;;;;5072942;28;20297;-69
2021/06/26 06:35:27;;;;;;;7.68;5.40;;;18.60;99.90;;;;;;5071711;28;20293;-70
2021/06/26 06:37:54;;;;;;;7.72;5.80;;;18.80;99.90;;;;;;5051101;28;20688;-69
2021/06/26 06:40:21;;;;;;;9.13;5.50;;;18.90;99.90;;;;;;5071340;28;20200;-70
2021/06/26 06:42:48;;;;;;;6.15;5.45;;;19.10;99.90;;;;;;5052980;28;20720;-70
2021/06/26 06:45:15;;;;;;;8.43;5.38;;;19.20;99.90;;;;;;5070279;28;20198;-70
2021/06/26 06:47:43;;;;;;;7.45;5.50;;;19.20;99.90;;;;;;5072816;28;20576;-70
2021/06/26 06:50:13;;;;;;;7.13;5.25;;;19.40;99.90;;;;;;5053657;28;20194;-70
2021/06/26 06:52:40;;;;;;;8.93;6.05;;;19.30;99.90;;;;;;5070503;28;20194;-69
2021/06/26 06:55:08;;;;;;;7.82;5.40;;;19.30;99.90;;;;;;5071102;28;20210;-69
2021/06/26 06:57:35;;;;;;;7.07;6.00;;;19.40;99.90;;;;;;5056400;28;20229;-69
2021/06/26 07:00:02;;;;;;;8.18;6.35;;;19.70;99.90;;;;;;5056760;28;20210;-69
2021/06/26 07:02:29;;;;;;;10.02;6.25;;;19.70;99.90;;;;;;5067837;28;20292;-69
2021/06/26 07:04:56;;;;;;;10.88;6.15;;;19.80;99.90;;;;;;5058668;28;20202;-70
2021/06/26 07:07:24;;;;;;;7.88;6.18;;;19.90;99.90;;;;;;5062955;28;20191;-70
2021/06/26 07:09:51;;;;;;;6.97;5.75;;;20.00;99.90;;;;;;5062964;28;20198;-69
2021/06/26 07:12:18;;;;;;;7.95;5.80;;;20.20;99.90;;;;;;5055314;28;20199;-69
2021/06/26 07:14:44;;;;;;;11.75;7.18;;;20.40;99.90;;;;;;5072678;28;20237;-70
2021/06/26 07:17:11;;;;;;;8.75;6.13;;;20.40;99.90;;;;;;5066627;28;20226;-70
2021/06/26 07:19:38;;;;;;;10.00;6.35;;;20.50;99.90;;;;;;5052419;28;20209;-70
2021/06/26 07:22:05;;;;;;;8.70;6.13;;;20.50;99.90;;;;;;5059726;28;20648;-70
2021/06/26 07:24:34;;;;;;;8.10;6.13;;;20.50;99.90;;;;;;5037594;28;20195;-69
2021/06/26 07:27:00;;;;;;;10.48;6.90;;;20.40;99.90;;;;;;5048842;28;20210;-69
2021/06/26 07:29:27;;;;;;;9.00;6.53;;;20.30;99.90;;;;;;5050144;28;20209;-71
2021/06/26 07:31:54;;;;;;;7.72;5.82;;;20.40;99.90;;;;;;5052436;28;20573;-70
2021/06/26 07:34:21;;;;;;;7.05;5.97;;;20.50;99.90;;;;;;5051976;28;20211;-69
2021/06/26 07:36:48;;;;;;;9.32;7.15;;;20.60;99.90;;;;;;5052294;28;20573;-69
2021/06/26 07:39:14;;;;;;;7.60;5.97;;;20.50;99.90;;;;;;5071904;28;20587;-69
2021/06/26 07:41:43;;;;;;;7.93;6.47;;;20.70;99.90;;;;;;5057447;28;20199;-70
2021/06/26 07:44:09;;;;;;;10.70;6.88;;;21.10;99.90;;;;;;5051977;28;20569;-69
2021/06/26 07:46:36;;;;;;;9.57;6.68;;;21.20;99.90;;;;;;5051665;28;20191;-69
2021/06/26 07:49:04;;;;;;;8.93;6.50;;;21.30;99.90;;;;;;5051712;28;20201;-69
2021/06/26 07:51:31;;;;;;;7.63;6.22;;;21.40;99.90;;;;;;5051555;28;20717;-69
2021/06/26 07:53:58;;;;;;;7.72;6.78;;;21.50;99.90;;;;;;5069320;28;20212;-69
2021/06/26 07:56:25;;;;;;;8.35;6.90;;;21.50;99.90;;;;;;5061662;28;20235;-69
2021/06/26 07:58:54;;;;;;;10.48;6.57;;;21.60;99.90;;;;;;5057549;28;20229;-69
2021/06/26 08:01:20;;;;;;;7.53;6.13;;;21.70;99.90;;;;;;5051251;28;20286;-69
2021/06/26 08:03:47;;;;;;;10.18;7.88;;;21.70;99.90;;;;;;5051258;28;20207;-69
2021/06/26 08:06:14;;;;;;;9.82;7.07;;;21.50;99.90;;;;;;5051392;28;20215;-69
2021/06/26 08:08:41;;;;;;;7.38;6.32;;;21.80;99.90;;;;;;5065971;28;20590;-69
2021/06/26 08:11:08;;;;;;;9.32;6.15;;;21.80;99.90;;;;;;5100168;22;20231;-72
2021/06/26 08:13:35;;;;;;;10.23;6.75;;;21.80;99.90;;;;;;5069923;28;20206;-72
2021/06/26 08:16:03;;;;;;;9.02;6.03;;;22.00;99.90;;;;;;5070720;28;20233;-73
2021/06/26 08:18:30;;;;;;;8.63;6.20;;;22.20;99.90;;;;;;5069481;28;20226;-72
2021/06/26 08:20:57;;;;;;;7.72;6.28;;;22.60;99.90;;;;;;5069758;28;20202;-72
2021/06/26 08:23:23;;;;;;;7.85;6.47;;;22.50;99.90;;;;;;5069645;28;20211;-72
2021/06/26 08:25:50;;;;;;;8.30;6.38;;;22.40;99.90;;;;;;5067634;28;20202;-72
2021/06/26 08:28:17;;;;;;;7.53;5.47;;;22.40;99.90;;;;;;5059199;28;20371;-73
2021/06/26 08:30:44;;;;;;;7.03;5.63;;;22.30;99.90;;;;;;5067780;28;20202;-72
2021/06/26 08:33:15;;;;;;;8.93;5.63;;;22.30;99.90;;;;;;5062411;28;20213;-72
2021/06/26 08:35:42;;;;;;;6.85;5.97;;;22.60;99.90;;;;;;5050693;28;20730;-73
2021/06/26 08:38:09;;;;;;;7.88;5.65;;;22.50;99.90;;;;;;5059506;28;20581;-72
2021/06/26 08:40:36;;;;;;;9.32;6.13;;;22.60;99.90;;;;;;5068974;28;20297;-72
2021/06/26 08:43:03;;;;;;;8.20;6.15;;;22.70;99.90;;;;;;5069772;28;20315;-72
2021/06/26 08:45:30;;;;;;;8.23;5.75;;;22.90;99.90;;;;;;5066757;28;20565;-72
2021/06/26 08:47:57;;;;;;;8.30;6.07;;;23.20;99.90;;;;;;5066674;28;20648;-72
2021/06/26 08:50:28;;;;;;;6.68;4.93;;;23.00;99.90;;;;;;5064133;28;20198;-72
2021/06/26 08:52:55;;;;;;;8.00;5.82;;;23.20;99.90;;;;;;5069122;28;20572;-72
2021/06/26 08:55:22;;;;;;;6.68;5.45;;;23.00;99.90;;;;;;5069479;28;20198;-72
2021/06/26 08:57:50;;;;;;;8.48;5.53;;;23.00;99.90;;;;;;5068663;28;20222;-71
2021/06/26 09:00:19;;;;;;;7.20;5.47;;;23.10;99.90;;;;;;5068985;28;20567;-72
2021/06/26 09:02:46;;;;;;;9.38;6.57;;;23.10;99.90;;;;;;5063446;28;20245;-72
2021/06/26 09:05:26;;;;;;;7.32;5.30;;;23.10;99.90;;;;;;5057209;28;20202;-73
2021/06/26 09:07:53;;;;;;;6.20;5.20;;;23.00;99.90;;;;;;5067929;28;20193;-72
2021/06/26 09:10:21;;;;;;;6.30;4.82;;;23.20;99.90;;;;;;5068503;28;20322;-72
2021/06/26 09:12:50;;;;;;;5.65;4.53;;;23.30;99.90;;;;;;5051134;28;20202;-73
2021/06/26 09:15:25;;;;;;;6.85;4.80;;;23.60;99.90;;;;;;5055175;28;20229;-72
2021/06/26 09:17:52;;;;;;;6.82;4.70;;;23.50;99.90;;;;;;5063654;28;20423;-72
2021/06/26 09:20:21;;;;;;;6.28;4.45;;;23.50;99.90;;;;;;5068702;28;20201;-73
2021/06/26 09:22:52;;;;;;;6.15;4.65;;;23.80;99.90;;;;;;5068727;28;20210;-72
2021/06/26 09:25:30;;;;;;;5.95;4.72;;;23.90;99.90;;;;;;5066938;28;20213;-72
2021/06/26 09:27:58;;;;;;;6.55;4.38;;;23.50;99.90;;;;;;5050459;28;20546;-72
2021/06/26 09:30:37;;;;;;;6.10;4.30;;;23.60;99.90;;;;;;5057961;28;20327;-72
2021/06/26 09:33:12;;;;;;;6.88;4.15;;;23.90;99.90;;;;;;5058386;28;20327;-73
2021/06/26 09:35:39;;;;;;;6.95;4.60;;;24.40;99.90;;;;;;5057634;28;20652;-69
2021/06/26 09:38:08;;;;;;;5.63;4.45;;;24.40;99.90;;;;;;5051614;28;20222;-73
2021/06/26 09:40:37;;;;;;;8.07;4.28;;;24.60;99.90;;;;;;5048899;28;20214;-71
2021/06/26 09:43:04;;;;;;;6.40;3.80;;;24.30;99.90;;;;;;5056692;28;20562;-70
2021/06/26 09:45:31;;;;;;;8.05;4.68;;;24.90;99.90;;;;;;5067893;28;20552;-70
2021/06/26 09:48:05;;;;;;;5.82;4.43;;;25.30;99.90;;;;;;5057492;28;20282;-70
2021/06/26 09:50:32;;;;;;;5.45;3.92;;;25.50;99.90;;;;;;5070477;28;20198;-70
2021/06/26 09:53:03;;;;;;;6.13;4.30;;;25.90;99.90;;;;;;5070791;28;20289;-70
2021/06/26 09:55:34;;;;;;;7.88;4.50;;;26.00;99.90;;;;;;5071100;28;20229;-71
2021/06/26 09:58:02;;;;;;;5.05;4.38;;;25.80;99.90;;;;;;5058535;28;20215;-71
2021/06/26 10:00:31;;;;;;;4.55;3.75;;;25.30;99.90;;;;;;5068667;28;20213;-71
2021/06/26 10:02:59;;;;;;;7.85;4.93;;;26.20;99.90;;;;;;5063351;28;20664;-71
2021/06/26 10:05:26;;;;;;;5.82;4.93;;;25.30;99.90;;;;;;5054034;28;20199;-72
2021/06/26 10:07:53;;;;;;;6.50;5.22;;;24.50;99.90;;;;;;5067407;28;20668;-71
2021/06/26 10:10:21;;;;;;;7.00;5.47;;;24.50;99.90;;;;;;5072452;28;20194;-71
2021/06/26 10:12:51;;;;;;;20.60;6.20;;;24.50;99.90;;;;;;5061970;28;20202;-71
2021/06/26 10:15:19;;;;;;;7.57;4.45;;;25.00;99.90;;;;;;5070050;28;20202;-72
2021/06/26 10:17:46;;;;;;;6.57;4.25;;;25.20;99.90;;;;;;5073257;28;20693;-72
2021/06/26 10:20:15;;;;;;;6.07;4.63;;;25.00;99.90;;;;;;5054771;28;20199;-72
2021/06/26 10:22:44;;;;;;;7.22;4.43;;;25.20;99.90;;;;;;5066618;28;20200;-72
2021/06/26 10:25:12;;;;;;;5.47;4.53;;;25.20;99.90;;;;;;5074957;28;20715;-72
2021/06/26 10:27:40;;;;;;;6.05;4.95;;;25.00;99.90;;;;;;5075079;28;20213;-71
2021/06/26 10:30:14;;;;;;;6.22;4.78;;;24.50;99.90;;;;;;5061683;28;20194;-71
2021/06/26 10:32:52;;;;;;;7.10;4.82;;;24.80;99.90;;;;;;5066214;28;20205;-71
2021/06/26 10:35:20;;;;;;;6.80;4.63;;;25.40;99.90;;;;;;5061949;28;20564;-71
2021/06/26 10:37:47;;;;;;;6.85;4.28;;;25.90;99.90;;;;;;5069082;28;20198;-71
2021/06/26 10:40:14;;;;;;;7.05;4.10;;;25.80;99.90;;;;;;5068593;28;20212;-71
2021/06/26 10:42:41;;;;;;;5.85;4.50;;;25.80;99.90;;;;;;5058712;28;20206;-71
2021/06/26 10:45:27;;;;;;;4.35;3.95;;;25.90;99.90;;;;;;5054613;28;20194;-71
2021/06/26 10:47:54;;;;;;;6.22;4.55;;;25.50;99.90;;;;;;5061864;28;20285;-72
2021/06/26 10:50:24;;;;;;;6.05;4.70;;;25.30;99.90;;;;;;5072717;28;20206;-72
2021/06/26 10:52:52;;;;;;;5.15;4.07;;;24.80;99.90;;;;;;5068039;28;20286;-72
2021/06/26 10:55:38;;;;;;;4.22;3.58;;;25.50;99.90;;;;;;5053515;28;20230;-72
2021/06/26 10:58:07;;;;;;;5.80;4.65;;;25.50;99.90;;;;;;5059854;28;20308;-72
2021/06/26 11:00:36;;;;;;;5.68;4.20;;;25.80;99.90;;;;;;5081662;28;20203;-72
2021/06/26 11:03:05;;;;;;;5.18;4.22;;;25.30;99.90;;;;;;5087060;28;20205;-72
2021/06/26 11:05:34;;;;;;;4.68;3.90;;;24.90;99.90;;;;;;5086135;28;20211;-72
2021/06/26 11:08:01;;;;;;;5.35;3.92;;;25.40;99.90;;;;;;5073864;28;20206;-72
2021/06/26 11:10:28;;;;;;;5.45;3.45;;;26.10;99.90;;;;;;5084673;28;20223;-72
2021/06/26 11:12:55;;;;;;;4.05;3.70;;;27.20;99.90;;;;;;5083926;28;20205;-71
2021/06/26 11:15:28;;;;;;;6.07;4.20;;;27.10;99.90;;;;;;5090540;28;20616;-71
2021/06/26 11:17:57;;;;;;;6.10;3.78;;;26.20;99.90;;;;;;5087793;28;20206;-72
2021/06/26 11:20:25;;;;;;;4.60;3.60;;;26.50;99.90;;;;;;5083116;28;20671;-72
2021/06/26 11:22:54;;;;;;;4.80;3.80;;;25.90;99.90;;;;;;5090762;28;20206;-72
2021/06/26 11:25:21;;;;;;;4.13;3.72;;;25.50;99.90;;;;;;5080522;28;20542;-72
2021/06/26 11:27:48;;;;;;;4.25;3.67;;;25.50;99.90;;;;;;5087963;28;20224;-72
2021/06/26 11:30:16;;;;;;;6.32;4.10;;;25.30;99.90;;;;;;5063342;28;20199;-69
2021/06/26 11:32:43;;;;;;;5.15;3.70;;;25.60;99.90;;;;;;5077476;28;20198;-68
2021/06/26 11:35:13;;;;;;;4.72;3.50;;;25.90;99.90;;;;;;5086378;28;20197;-69
2021/06/26 11:37:42;;;;;;;3.55;3.00;;;26.20;99.90;;;;;;5091887;28;20296;-69
2021/06/26 11:40:21;;;;;;;4.13;3.15;;;26.90;99.90;;;;;;5088649;28;20264;-68
2021/06/26 11:42:52;;;;;;;4.13;3.47;;;27.10;99.90;;;;;;5092584;28;20208;-69
2021/06/26 11:45:20;;;;;;;3.85;3.42;;;25.90;99.90;;;;;;5090443;28;20327;-69
2021/06/26 11:47:48;;;;;;;4.40;3.17;;;25.90;99.90;;;;;;5081493;28;20750;-68
2021/06/26 11:50:18;;;;;;;4.28;2.78;;;26.30;99.90;;;;;;5065693;28;20203;-69
2021/06/26 11:52:45;;;;;;;3.35;3.00;;;26.60;99.90;;;;;;5053511;28;20207;-69
2021/06/26 11:55:13;;;;;;;3.75;2.72;;;26.20;99.90;;;;;;5074731;28;20270;-68
2021/06/26 11:57:40;;;;;;;3.60;3.13;;;26.10;99.90;;;;;;5059652;28;20731;-68
2021/06/26 12:00:08;;;;;;;3.50;3.20;;;25.80;99.90;;;;;;5053513;28;20226;-69
2021/06/26 12:02:39;;;;;;;5.50;3.33;;;25.90;99.90;;;;;;5055567;28;20225;-69
2021/06/26 12:05:07;;;;;;;4.65;3.30;;;25.90;99.90;;;;;;5062802;28;20573;-69
2021/06/26 12:07:37;;;;;;;4.47;3.25;;;25.70;99.90;;;;;;5061831;28;20203;-69
2021/06/26 12:10:05;;;;;;;3.50;3.20;;;25.90;99.90;;;;;;5059588;28;20201;-69
2021/06/26 12:12:37;;;;;;;2.65;2.45;;;25.50;99.90;;;;;;5063642;28;20202;-69
2021/06/26 12:15:06;;;;;;;3.45;2.50;;;25.60;99.90;;;;;;5060087;28;20197;-69
2021/06/26 12:17:33;;;;;;;3.28;2.97;;;27.10;99.90;;;;;;5071065;28;20194;-69
2021/06/26 12:20:05;;;;;;;3.00;2.78;;;26.40;99.90;;;;;;5068887;28;20297;-69
2021/06/26 12:22:32;;;;;;;2.72;2.53;;;25.90;99.90;;;;;;5072843;28;20546;-68
2021/06/26 12:25:13;;;;;;;3.25;2.58;;;26.10;99.90;;;;;;5066706;28;20206;-69
2021/06/26 12:27:40;;;;;;;2.83;2.63;;;26.10;99.90;;;;;;5058199;28;20630;-69
2021/06/26 12:30:09;;;;;;;4.68;3.55;;;26.20;99.90;;;;;;5064612;28;20194;-69
2021/06/26 12:32:38;;;;;;;3.47;2.67;;;25.90;99.90;;;;;;5056780;28;20292;-69
2021/06/26 12:35:07;;;;;;;2.88;2.67;;;26.50;99.90;;;;;;5063977;28;20199;-69
2021/06/26 12:37:35;;;;;;;2.80;2.60;;;26.40;99.90;;;;;;5055033;28;20647;-68
2021/06/26 12:40:11;;;;;;;3.00;2.78;;;26.20;99.90;;;;;;5055565;28;20219;-69
2021/06/26 12:42:55;;;;;;;3.10;2.90;;;26.60;99.90;;;;;;5072059;28;20202;-69
2021/06/26 12:45:28;;;;;;;2.80;2.60;;;27.20;99.90;;;;;;5061021;28;20557;-68
2021/06/26 12:48:02;;;;;;;2.78;2.58;;;27.00;99.90;;;;;;5063557;28;20208;-69
2021/06/26 12:50:32;;;;;;;20.20;3.70;;;27.30;99.90;;;;;;5071234;28;20268;-69